EmailTwitter


Observations de surface / France / LFMK (07635)

Régions: Québec | Canada | États-Unis | Europe | France | UK | Ailleurs
Station
Affichage
Infos & localisation pour LFMK (07635) | Aide pour décoder les METARs

Observations prises le 2020-02-19 à 17H00 UTC à CARCASSONNE/SALV, FR (LFMK)

Température: 12.0 Celsius

Point de rosée: 4.0 Celsius

Humidité relative: 58%

Vents: Ouest-nord-ouest à 19 km/h ou 10 noeuds.

Pression au niveau moyen de la mer: 102.90 kilopascals.

Observation METAR:

LFMK 191700Z AUTO 29010KT CAVOK 12/04 Q1029 BECMG 28015G25KT=